Time;durP1;ratioP1;P1;durP2;ratioP2;P2;SDS_P1;SDS_P2;PMS_P1;PMS_P2;Temp;Humidity;BMP_temperature;BMP_pressure;BME280_temperature;BME280_humidity;BME280_pressure;Samples;Min_cycle;Max_cycle;Signal;HPM_P1;HPM_P2
2022/02/14 17:42:45;;;;;;;17.60;12.40;;;;;;;2.94;68.01;98637.09;1883296;74;22063;-62
2022/02/14 17:45:13;;;;;;;20.08;12.60;;;;;;;2.90;68.11;98647.52;1854316;75;21037;-63
2022/02/14 17:47:40;;;;;;;23.70;13.60;;;;;;;2.89;68.08;98639.85;1854399;75;21105;-62
2022/02/14 17:50:09;;;;;;;21.17;11.97;;;;;;;2.90;68.20;98641.52;1853374;76;20998;-63
2022/02/14 17:52:35;;;;;;;19.98;13.22;;;;;;;2.93;68.33;98627.69;1856774;75;21294;-62
2022/02/14 17:55:04;;;;;;;19.00;13.53;;;;;;;2.96;68.28;98635.31;1856153;76;20921;-63
2022/02/14 17:57:30;;;;;;;19.15;13.20;;;;;;;2.94;68.29;98629.36;1855419;75;20882;-62
2022/02/14 17:59:57;;;;;;;20.50;13.62;;;;;;;2.95;68.29;98639.64;1854649;76;22116;-62
2022/02/14 18:02:24;;;;;;;14.77;12.07;;;;;;;2.94;68.27;98639.67;1857195;75;20974;-62
2022/02/14 18:04:50;;;;;;;24.67;14.63;;;;;;;2.85;68.36;98639.09;1852607;75;21393;-62
2022/02/14 18:07:17;;;;;;;19.67;13.38;;;;;;;2.93;68.42;98652.19;1857871;76;20957;-62
2022/02/14 18:09:44;;;;;;;23.27;13.93;;;;;;;2.93;68.44;98654.77;1850379;76;21038;-62
2022/02/14 18:12:11;;;;;;;23.03;14.17;;;;;;;2.92;68.46;98655.22;1850912;77;21542;-63
2022/02/14 18:14:44;;;;;;;;;;;;;;;2.93;68.50;98651.73;1855564;75;21807;-62
2022/02/14 18:17:13;;;;;;;24.32;14.68;;;;;;;2.91;68.50;98646.64;1718698;77;21125;-62
2022/02/14 18:19:40;;;;;;;27.85;14.53;;;;;;;2.88;68.52;98657.03;1703804;83;21071;-62
2022/02/14 18:22:07;;;;;;;23.42;14.13;;;;;;;2.85;68.57;98651.98;1710810;83;21036;-62
2022/02/14 18:24:36;;;;;;;19.32;13.50;;;;;;;2.82;68.60;98663.68;1699553;83;21409;-62
2022/02/14 18:27:04;;;;;;;23.83;15.00;;;;;;;2.79;68.58;98665.08;1713293;81;21055;-62
2022/02/14 18:29:34;;;;;;;;;;;;;;;2.75;68.60;98675.55;1737063;80;21040;-62
2022/02/14 18:32:05;;;;;;;21.93;13.00;;;;;;;2.73;68.77;98674.30;1707379;81;20220;-62
2022/02/14 18:34:33;;;;;;;21.02;13.20;;;;;;;2.73;68.77;98687.19;1697878;81;21567;-62
2022/02/14 18:37:09;;;;;;;18.05;12.93;;;;;;;2.71;68.82;98679.94;1731008;80;21067;-62
2022/02/14 18:39:37;;;;;;;20.92;12.43;;;;;;;2.70;68.83;98678.27;1706732;82;21036;-63
2022/02/14 18:42:06;;;;;;;21.02;13.10;;;;;;;2.71;68.92;98667.05;1734757;81;21049;-63
2022/02/14 18:44:33;;;;;;;20.90;13.18;;;;;;;2.72;68.90;98679.07;1734559;81;21616;-63
2022/02/14 18:47:04;;;;;;;19.92;12.88;;;;;;;2.71;68.88;98688.97;1730364;82;21003;-63
2022/02/14 18:49:32;;;;;;;26.33;13.58;;;;;;;2.70;68.89;98675.69;1732814;81;21088;-65
2022/02/14 18:52:00;;;;;;;21.25;13.40;;;;;;;2.69;68.98;98694.64;1735333;81;22239;-63
2022/02/14 18:54:27;;;;;;;19.50;11.90;;;;;;;2.67;68.94;98697.70;1732845;81;24872;-62
2022/02/14 18:56:54;;;;;;;23.57;12.35;;;;;;;2.64;68.95;98697.34;1697347;82;21060;-62
2022/02/14 18:59:21;;;;;;;;;;;;;;;2.66;69.09;98705.88;1703028;84;21008;-62
2022/02/14 19:01:50;;;;;;;17.55;11.85;;;;;;;2.65;69.04;98703.34;1696005;84;21556;-62
2022/02/14 19:04:18;;;;;;;24.35;13.18;;;;;;;2.65;69.13;98708.49;1694378;83;21045;-61
2022/02/14 19:06:45;;;;;;;17.73;12.58;;;;;;;2.66;69.19;98705.02;1695665;83;21057;-62
2022/02/14 19:09:13;;;;;;;18.27;13.20;;;;;;;2.67;69.16;98705.44;1716606;83;21092;-62
2022/02/14 19:14:18;;;;;;;18.52;11.88;;;;;;;2.66;69.18;98699.86;1856076;76;23715;-61
2022/02/14 19:16:47;;;;;;;16.42;11.48;;;;;;;2.60;69.13;98714.23;1822303;77;21586;-62
2022/02/14 19:19:14;;;;;;;18.30;12.30;;;;;;;2.59;69.22;98713.84;1817320;78;21061;-62
2022/02/14 19:21:41;;;;;;;19.15;11.80;;;;;;;2.59;69.29;98720.29;1818511;77;20974;-62
2022/02/14 19:24:08;;;;;;;17.42;11.90;;;;;;;2.60;69.29;98720.67;1820570;78;21548;-62
2022/02/14 19:26:40;;;;;;;17.45;11.97;;;;;;;2.59;69.30;98721.13;1818252;77;21027;-62
2022/02/14 19:29:04;;;;;;;18.07;11.18;;;;;;;2.58;69.26;98721.19;1817736;77;22381;-62
2022/02/14 19:31:33;;;;;;;20.85;12.25;;;;;;;2.55;69.31;98728.98;1817278;77;21394;-62
2022/02/14 19:33:59;;;;;;;16.75;12.15;;;;;;;2.53;69.36;98735.49;1814775;77;21806;-63
2022/02/14 19:36:27;;;;;;;22.33;12.00;;;;;;;2.53;69.43;98737.23;1809047;77;21476;-63
2022/02/14 19:38:55;;;;;;;;;;;;;;;2.55;69.49;98736.30;1809740;77;20962;-62
2022/02/14 19:41:23;;;;;;;;;;;;;;;2.56;69.42;98735.84;1816834;77;20162;-62
2022/02/14 19:43:52;;;;;;;24.63;11.78;;;;;;;2.52;69.42;98734.23;1811119;77;21491;-61
2022/02/14 19:46:21;;;;;;;18.10;11.35;;;;;;;2.54;69.52;98728.59;1811274;77;21044;-62
2022/02/14 19:48:48;;;;;;;16.85;12.28;;;;;;;2.54;69.45;98736.33;1808752;77;21048;-61
2022/02/14 19:51:16;;;;;;;21.17;11.45;;;;;;;2.52;69.47;98730.38;1817278;77;20981;-61
2022/02/14 19:53:46;;;;;;;15.80;11.45;;;;;;;2.52;69.50;98722.64;1794657;77;21409;-62
2022/02/14 19:56:13;;;;;;;18.17;12.15;;;;;;;2.48;69.48;98727.50;1807672;78;21188;-62
2022/02/14 19:58:40;;;;;;;18.62;12.35;;;;;;;2.48;69.53;98723.64;1811109;77;21001;-62
2022/02/14 20:01:08;;;;;;;20.20;12.55;;;;;;;2.40;69.43;98710.98;1806782;78;21376;-62
2022/02/14 20:03:37;;;;;;;20.88;12.60;;;;;;;2.46;69.61;98737.42;1817384;78;21032;-62
2022/02/14 20:06:05;;;;;;;16.30;12.20;;;;;;;2.49;69.59;98730.47;1824661;77;21024;-62
2022/02/14 20:08:32;;;;;;;20.57;13.88;;;;;;;2.50;69.60;98728.31;1824524;77;21068;-62
2022/02/14 20:10:59;;;;;;;19.67;12.53;;;;;;;2.49;69.62;98731.75;1820687;77;21049;-62
2022/02/14 20:13:25;;;;;;;19.12;12.55;;;;;;;2.48;69.59;98729.63;1821090;77;21055;-62
2022/02/14 20:15:52;;;;;;;21.07;11.60;;;;;;;2.45;69.60;98727.98;1816286;77;21063;-62
2022/02/14 20:18:19;;;;;;;18.00;12.03;;;;;;;2.37;69.61;98714.48;1812395;78;22314;-62
2022/02/14 20:20:46;;;;;;;18.93;12.13;;;;;;;2.45;69.67;98722.83;1820977;77;21448;-61
2022/02/14 20:23:13;;;;;;;18.52;12.85;;;;;;;2.44;69.61;98725.02;1821662;77;21080;-61
2022/02/14 20:25:40;;;;;;;20.15;12.23;;;;;;;2.44;69.68;98730.63;1822303;77;21005;-62
2022/02/14 20:28:07;;;;;;;17.80;12.43;;;;;;;2.42;69.66;98730.66;1819950;78;20982;-62
2022/02/14 20:30:34;;;;;;;18.15;11.68;;;;;;;2.34;69.60;98719.73;1816768;77;21636;-62
2022/02/14 20:33:00;;;;;;;22.22;12.70;;;;;;;2.32;69.66;98729.23;1818461;78;22450;-61
2022/02/14 20:35:31;;;;;;;19.67;12.58;;;;;;;2.32;69.78;98721.51;1824525;78;21574;-61
2022/02/14 20:38:00;;;;;;;18.98;11.65;;;;;;;2.33;69.74;98729.66;1821344;77;21582;-62
2022/02/14 20:40:26;;;;;;;19.67;12.43;;;;;;;2.33;69.75;98720.64;1823257;77;21016;-61
2022/02/14 20:42:54;;;;;;;22.33;12.73;;;;;;;2.31;69.73;98726.27;1823446;78;21712;-62
2022/02/14 20:45:20;;;;;;;20.55;12.18;;;;;;;2.29;69.83;98728.05;1823180;77;21503;-61
2022/02/14 20:47:47;;;;;;;18.87;12.40;;;;;;;2.29;69.83;98726.75;1823066;78;20938;-62
2022/02/14 20:50:19;;;;;;;16.60;12.23;;;;;;;2.27;69.78;98735.41;1822938;77;21062;-61
2022/02/14 20:52:43;;;;;;;21.97;12.35;;;;;;;2.23;69.79;98737.24;1822668;78;20942;-61
2022/02/14 20:55:10;;;;;;;22.52;13.35;;;;;;;2.22;69.87;98732.54;1804619;77;21001;-61
2022/02/14 20:57:36;;;;;;;18.93;13.00;;;;;;;2.21;69.82;98737.72;1809317;77;21070;-61
2022/02/14 21:00:07;;;;;;;22.57;13.50;;;;;;;2.17;69.85;98729.70;1802177;78;20938;-61
2022/02/14 21:02:33;;;;;;;15.85;11.68;;;;;;;2.18;69.96;98732.66;1782745;78;21052;-61
2022/02/14 21:05:00;;;;;;;18.27;12.13;;;;;;;2.17;69.91;98729.70;1820136;77;21526;-61
2022/02/14 21:07:27;;;;;;;17.90;12.13;;;;;;;2.15;70.03;98728.89;1825056;77;20993;-62
2022/02/14 21:09:53;;;;;;;17.57;11.50;;;;;;;2.17;70.11;98727.13;1822358;77;20981;-62
2022/02/14 21:12:21;;;;;;;22.90;13.77;;;;;;;2.20;70.08;98727.03;1805758;77;21085;-62
2022/02/14 21:14:48;;;;;;;18.20;12.63;;;;;;;2.18;70.08;98724.94;1818559;77;20931;-61
2022/02/14 21:17:14;;;;;;;20.87;13.23;;;;;;;2.17;70.10;98724.55;1815494;78;21056;-61
2022/02/14 21:19:41;;;;;;;23.22;12.70;;;;;;;2.16;70.14;98722.88;1822120;78;20978;-61
2022/02/14 21:22:07;;;;;;;19.10;12.47;;;;;;;2.14;70.18;98720.33;1818738;77;21030;-61
2022/02/14 21:24:34;;;;;;;17.10;12.82;;;;;;;2.15;70.27;98726.31;1815113;77;21001;-62
2022/02/14 21:27:01;;;;;;;23.50;13.63;;;;;;;2.15;70.26;98722.45;1824739;77;20997;-62
2022/02/14 21:29:28;;;;;;;20.13;14.40;;;;;;;2.11;70.18;98720.42;1814116;78;21001;-62
2022/02/14 21:31:55;;;;;;;23.98;13.50;;;;;;;2.06;70.17;98718.87;1804980;77;21037;-62
2022/02/14 21:34:21;;;;;;;19.52;13.05;;;;;;;2.04;70.34;98715.48;1808373;77;21399;-62
2022/02/14 21:36:49;;;;;;;21.40;13.93;;;;;;;2.04;70.36;98715.48;1819978;77;20985;-62
2022/02/14 21:39:17;;;;;;;22.15;13.65;;;;;;;2.00;70.39;98707.85;1823362;77;21523;-61
2022/02/14 21:41:43;;;;;;;;;;;;;;;1.98;70.41;98698.48;1824828;77;21625;-61
2022/02/14 21:44:11;;;;;;;23.10;13.98;;;;;;;1.95;70.45;98701.15;1817705;77;20487;-61
2022/02/14 21:46:38;;;;;;;22.22;13.88;;;;;;;1.91;70.51;98709.41;1815499;78;21455;-61
2022/02/14 21:49:08;;;;;;;25.20;15.10;;;;;;;1.88;70.60;98704.80;1811272;77;21104;-62
2022/02/14 21:51:33;;;;;;;22.45;13.68;;;;;;;1.86;70.60;98700.97;1801302;77;20996;-61
2022/02/14 21:54:00;;;;;;;21.60;13.63;;;;;;;1.85;70.64;98703.16;1819985;77;20977;-62
2022/02/14 21:56:26;;;;;;;19.87;12.88;;;;;;;1.81;70.64;98711.83;1814637;78;21147;-61
2022/02/14 21:58:53;;;;;;;21.10;14.40;;;;;;;1.82;70.67;98710.09;1811296;77;21425;-62
2022/02/14 22:01:20;;;;;;;22.43;14.63;;;;;;;1.77;70.67;98710.24;1842658;77;21272;-62
2022/02/14 22:03:46;;;;;;;22.60;14.25;;;;;;;1.76;70.74;98709.41;1816454;77;20989;-62
2022/02/14 22:08:58;;;;;;;23.47;14.93;;;;;;;1.75;70.85;98712.01;1823728;77;21521;-61
2022/02/14 22:11:25;;;;;;;24.55;13.65;;;;;;;1.71;70.85;98712.96;1821774;77;21972;-60
2022/02/14 22:13:52;;;;;;;23.20;14.20;;;;;;;1.69;70.89;98712.18;1819063;78;21581;-61
2022/02/14 22:16:18;;;;;;;20.80;13.90;;;;;;;1.67;70.90;98713.94;1821835;77;21085;-61
2022/02/14 22:18:45;;;;;;;24.57;14.90;;;;;;;1.64;70.95;98708.88;1810998;78;21541;-61
2022/02/14 22:21:12;;;;;;;25.40;14.90;;;;;;;1.62;70.97;98715.34;1822618;77;20977;-61
2022/02/14 22:23:39;;;;;;;20.88;13.65;;;;;;;1.61;70.98;98708.97;1831985;77;21074;-61
2022/02/14 22:26:06;;;;;;;19.20;14.28;;;;;;;1.61;71.04;98712.83;1806596;78;20957;-61
2022/02/14 22:28:33;;;;;;;21.07;14.30;;;;;;;1.59;71.02;98703.02;1824607;77;20965;-61
2022/02/14 22:31:00;;;;;;;20.35;13.35;;;;;;;1.55;71.05;98703.55;1829794;77;20961;-61
2022/02/14 22:33:26;;;;;;;24.50;15.38;;;;;;;1.53;71.09;98706.14;1830851;77;20974;-61
2022/02/14 22:35:53;;;;;;;24.82;15.13;;;;;;;1.50;71.13;98709.25;1819532;77;21532;-61
2022/02/14 22:38:27;;;;;;;22.65;15.15;;;;;;;1.47;71.28;98696.03;1826305;77;21045;-61
2022/02/14 22:40:51;;;;;;;21.35;14.35;;;;;;;1.47;71.30;98703.75;1819344;77;21511;-61
2022/02/14 22:43:18;;;;;;;22.77;15.03;;;;;;;1.46;71.35;98699.95;1822900;77;21019;-61
2022/02/14 22:45:48;;;;;;;23.57;15.53;;;;;;;1.44;71.38;98706.41;1814451;77;25260;-62
2022/02/14 22:48:15;;;;;;;22.07;15.43;;;;;;;1.41;71.42;98700.05;1825672;77;21221;-62
2022/02/14 22:50:42;;;;;;;22.82;14.85;;;;;;;1.38;71.49;98700.14;1826312;77;21063;-62
2022/02/14 22:53:09;;;;;;;20.05;14.53;;;;;;;1.38;71.54;98702.71;1819877;77;20963;-62
2022/02/14 22:55:35;;;;;;;29.57;15.93;;;;;;;1.37;71.59;98701.00;1817999;77;21079;-62
2022/02/14 22:58:04;;;;;;;27.93;15.80;;;;;;;1.35;71.63;98695.08;1810094;78;20998;-62
2022/02/14 23:00:56;;;;;;;23.85;15.68;;;;;;;1.37;71.69;98700.17;1830202;77;21470;-62
2022/02/14 23:03:24;;;;;;;23.22;15.13;;;;;;;1.38;71.79;98693.70;1824936;77;20934;-62
2022/02/14 23:05:51;;;;;;;22.13;15.23;;;;;;;1.40;71.85;98691.95;1822833;77;20985;-62
2022/02/14 23:14:09;;;;;;;25.77;15.98;;;;;;;1.46;71.94;98687.92;1823534;77;21216;-62
2022/02/14 23:16:46;;;;;;;23.98;14.80;;;;;;;1.46;71.97;98687.92;1816081;77;21052;-62
2022/02/14 23:19:14;;;;;;;22.13;15.78;;;;;;;1.46;71.95;98690.49;1806284;78;20997;-62
2022/02/14 23:21:41;;;;;;;;;;;;;;;1.45;72.02;98686.22;1826103;77;21017;-62
2022/02/14 23:24:08;;;;;;;26.70;15.40;;;;;;;1.47;72.07;98693.91;1828170;78;20159;-62
2022/02/14 23:26:35;;;;;;;25.65;15.58;;;;;;;1.46;72.07;98693.52;1827958;77;21056;-62
2022/02/14 23:29:03;;;;;;;23.50;15.45;;;;;;;1.45;72.03;98692.64;1819303;77;20981;-62
2022/02/14 23:31:30;;;;;;;22.95;14.87;;;;;;;1.43;72.04;98689.71;1819579;78;20935;-62
2022/02/14 23:33:57;;;;;;;25.08;15.90;;;;;;;1.40;72.07;98688.09;1826003;77;21478;-62
2022/02/14 23:36:24;;;;;;;23.57;14.80;;;;;;;1.38;72.12;98684.70;1817076;77;21510;-62
2022/02/14 23:38:50;;;;;;;24.43;14.63;;;;;;;1.39;72.26;98686.38;1825830;77;21327;-62
2022/02/14 23:41:17;;;;;;;22.67;16.40;;;;;;;1.41;72.30;98682.05;1812333;77;21004;-62
2022/02/14 23:43:44;;;;;;;24.80;15.63;;;;;;;1.43;72.29;98685.85;1820357;77;21069;-62
2022/02/14 23:46:11;;;;;;;22.70;15.33;;;;;;;1.46;72.35;98687.92;1815957;78;21024;-62
2022/02/14 23:48:37;;;;;;;21.35;14.55;;;;;;;1.52;72.48;98685.18;1814461;77;21024;-61
2022/02/14 23:51:04;;;;;;;28.02;15.70;;;;;;;1.60;72.45;98678.96;1814629;77;21124;-62
2022/02/14 23:53:31;;;;;;;20.40;14.35;;;;;;;1.66;72.50;98676.24;1812327;78;20992;-62
2022/02/14 23:55:57;;;;;;;23.17;15.77;;;;;;;1.73;72.57;98675.17;1825060;77;21067;-62
2022/02/14 23:58:24;;;;;;;23.52;15.85;;;;;;;1.83;72.60;98682.20;1823049;78;21020;-62
